Time;durP1;ratioP1;P1;durP2;ratioP2;P2;SDS_P1;SDS_P2;PMS_P1;PMS_P2;Temp;Humidity;BMP_temperature;BMP_pressure;BME280_temperature;BME280_humidity;BME280_pressure;Samples;Min_cycle;Max_cycle;Signal;HPM_P1;HPM_P2
2022/10/14 00:01:13;;;;;;;115.22;75.82;;;12.20;99.90;;;;;;5053501;28;20443;-72
2022/10/14 00:03:41;;;;;;;116.78;76.55;;;12.20;99.90;;;;;;5068932;28;20534;-72
2022/10/14 00:06:11;;;;;;;115.35;70.43;;;12.20;99.90;;;;;;5073278;28;20542;-73
2022/10/14 00:08:38;;;;;;;123.35;71.05;;;12.20;99.90;;;;;;5073404;28;20384;-72
2022/10/14 00:11:10;;;;;;;105.07;69.57;;;12.20;99.90;;;;;;5073620;28;20070;-73
2022/10/14 00:13:38;;;;;;;110.05;70.93;;;12.20;99.90;;;;;;5072572;28;20055;-72
2022/10/14 00:16:06;;;;;;;112.80;78.75;;;12.30;99.90;;;;;;5070961;28;20052;-71
2022/10/14 00:18:34;;;;;;;101.82;72.05;;;12.20;99.90;;;;;;5053838;28;20041;-72
2022/10/14 00:21:02;;;;;;;107.32;75.78;;;12.20;99.90;;;;;;5058712;28;20059;-72
2022/10/14 00:23:30;;;;;;;109.38;72.97;;;12.20;99.90;;;;;;5071660;28;20048;-72
2022/10/14 00:25:58;;;;;;;114.22;75.22;;;12.20;99.90;;;;;;5073401;28;20464;-72
2022/10/14 00:28:32;;;;;;;108.55;73.75;;;12.20;99.90;;;;;;5073536;28;20121;-72
2022/10/14 00:31:00;;;;;;;110.10;72.78;;;12.20;99.90;;;;;;5071077;28;20092;-72
2022/10/14 00:33:29;;;;;;;113.80;73.45;;;12.20;99.90;;;;;;5070643;28;20124;-72
2022/10/14 00:36:04;;;;;;;111.38;74.00;;;12.20;99.90;;;;;;5057584;28;20091;-71
2022/10/14 00:38:35;;;;;;;114.97;74.25;;;12.20;99.90;;;;;;5072117;28;20495;-71
2022/10/14 00:41:03;;;;;;;108.18;74.80;;;12.20;99.90;;;;;;5068008;28;20045;-72
2022/10/14 00:43:52;;;;;;;121.40;75.72;;;12.20;99.90;;;;;;5052288;28;20033;-72
2022/10/14 00:46:20;;;;;;;132.13;79.25;;;12.10;99.90;;;;;;5052225;28;20526;-72
2022/10/14 00:48:47;;;;;;;172.57;79.97;;;12.20;99.90;;;;;;5051626;28;20122;-72
2022/10/14 00:51:14;;;;;;;136.38;77.38;;;12.20;99.90;;;;;;5054379;28;20041;-72
2022/10/14 00:53:43;;;;;;;126.25;80.63;;;12.10;99.90;;;;;;5052372;28;20075;-71
2022/10/14 00:56:13;;;;;;;128.93;80.47;;;12.00;99.90;;;;;;5053267;28;20052;-71
2022/10/14 00:58:43;;;;;;;120.50;77.80;;;12.10;99.90;;;;;;5052689;28;20427;-71
2022/10/14 01:01:10;;;;;;;116.85;77.30;;;12.10;99.90;;;;;;5051756;28;20045;-71
2022/10/14 01:03:38;;;;;;;111.18;76.20;;;12.10;99.90;;;;;;5052513;28;20041;-71
2022/10/14 01:06:18;;;;;;;105.43;73.95;;;12.10;99.90;;;;;;5053101;28;20040;-71
2022/10/14 01:08:52;;;;;;;102.47;73.03;;;12.00;99.90;;;;;;5055327;28;20076;-71
2022/10/14 01:11:29;;;;;;;105.15;73.82;;;12.10;99.90;;;;;;5060290;28;20071;-71
2022/10/14 01:14:06;;;;;;;110.22;74.07;;;12.00;99.90;;;;;;5075925;28;20044;-71
2022/10/14 01:16:46;;;;;;;122.25;72.13;;;12.10;99.90;;;;;;5068789;28;20073;-72
2022/10/14 01:19:46;;;;;;;115.50;73.43;;;12.10;99.90;;;;;;5054497;28;20065;-72
2022/10/14 01:22:19;;;;;;;128.68;74.35;;;12.00;99.90;;;;;;5066110;28;20135;-71
2022/10/14 01:25:02;;;;;;;106.60;71.20;;;12.10;99.90;;;;;;5068835;28;20068;-72
2022/10/14 01:27:48;;;;;;;119.53;76.95;;;12.10;99.90;;;;;;5053008;28;20484;-72
2022/10/14 01:30:19;;;;;;;125.00;76.57;;;12.10;99.90;;;;;;5056063;28;20497;-72
2022/10/14 01:32:55;;;;;;;111.38;72.30;;;12.10;99.90;;;;;;5055649;28;20458;-72
2022/10/14 01:35:29;;;;;;;111.30;74.53;;;12.10;99.90;;;;;;5054552;28;20045;-72
2022/10/14 01:38:01;;;;;;;109.75;71.32;;;12.10;99.90;;;;;;5055658;28;20144;-72
2022/10/14 01:40:35;;;;;;;114.60;77.82;;;12.10;99.90;;;;;;5060732;28;20067;-72
2022/10/14 01:43:05;;;;;;;111.20;75.25;;;12.10;99.90;;;;;;5063147;28;20484;-72
2022/10/14 01:45:37;;;;;;;111.95;74.05;;;12.10;99.90;;;;;;5055694;28;20099;-72
2022/10/14 01:48:06;;;;;;;108.43;73.22;;;12.10;99.90;;;;;;5055513;28;20095;-72
2022/10/14 01:50:36;;;;;;;106.60;73.05;;;12.10;99.90;;;;;;5055441;28;20080;-72
2022/10/14 01:53:07;;;;;;;105.18;73.00;;;12.20;99.90;;;;;;5056316;28;20059;-72
2022/10/14 01:55:39;;;;;;;96.63;70.10;;;12.10;99.90;;;;;;5054441;28;20060;-72
2022/10/14 01:58:07;;;;;;;103.47;71.30;;;12.10;99.90;;;;;;5054192;28;20045;-71
2022/10/14 02:00:37;;;;;;;103.50;71.65;;;12.20;99.90;;;;;;5055585;28;20443;-71
2022/10/14 02:03:04;;;;;;;99.72;69.57;;;12.20;99.90;;;;;;5053299;28;20061;-72
2022/10/14 02:05:39;;;;;;;103.93;71.03;;;12.10;99.90;;;;;;5055187;28;20041;-72
2022/10/14 02:08:12;;;;;;;99.90;67.90;;;12.10;99.90;;;;;;5054332;28;20550;-73
2022/10/14 02:10:59;;;;;;;92.68;65.60;;;12.10;99.90;;;;;;5059547;28;20071;-73
2022/10/14 02:13:39;;;;;;;95.72;65.50;;;12.10;99.90;;;;;;5074609;28;20044;-72
2022/10/14 02:16:18;;;;;;;93.43;67.63;;;12.10;99.90;;;;;;5071935;28;21624;-71
2022/10/14 02:18:51;;;;;;;101.50;69.78;;;12.20;99.90;;;;;;5054242;28;20132;-72
2022/10/14 02:21:25;;;;;;;108.70;72.60;;;12.10;99.90;;;;;;5063881;28;20052;-71
2022/10/14 02:23:57;;;;;;;108.60;71.90;;;12.10;99.90;;;;;;5073607;28;20040;-72
2022/10/14 02:26:26;;;;;;;106.30;70.43;;;12.10;99.90;;;;;;5074271;28;20076;-72
2022/10/14 02:28:55;;;;;;;113.55;71.70;;;12.20;99.90;;;;;;5058660;28;20053;-72
2022/10/14 02:31:27;;;;;;;108.13;72.78;;;12.20;99.90;;;;;;5054909;28;20049;-72
2022/10/14 02:33:58;;;;;;;110.40;72.20;;;12.20;99.90;;;;;;5054361;28;20124;-72
2022/10/14 02:36:26;;;;;;;117.75;73.15;;;12.20;99.90;;;;;;5054897;28;20045;-72
2022/10/14 02:38:57;;;;;;;115.22;74.97;;;12.10;99.90;;;;;;5055397;28;20045;-71
2022/10/14 02:41:29;;;;;;;119.28;76.10;;;12.10;99.90;;;;;;5061611;28;20396;-72
2022/10/14 02:43:56;;;;;;;116.75;75.65;;;12.10;99.90;;;;;;5054841;28;20041;-72
2022/10/14 02:46:25;;;;;;;121.57;77.72;;;12.10;99.90;;;;;;5053058;28;20076;-72
2022/10/14 02:48:52;;;;;;;113.22;77.07;;;12.10;99.90;;;;;;5053500;28;20048;-73
2022/10/14 02:51:20;;;;;;;111.65;78.25;;;12.10;99.90;;;;;;5053284;28;20044;-72
2022/10/14 02:53:47;;;;;;;114.35;75.28;;;12.10;99.90;;;;;;5052782;28;20128;-72
2022/10/14 02:56:17;;;;;;;102.68;72.05;;;12.10;99.90;;;;;;5052741;28;20044;-72
2022/10/14 02:58:44;;;;;;;96.50;66.85;;;12.00;99.90;;;;;;5052636;28;20397;-72
2022/10/14 03:01:11;;;;;;;101.18;72.45;;;12.00;99.90;;;;;;5052544;28;20504;-72
2022/10/14 03:03:41;;;;;;;107.38;73.07;;;12.00;99.90;;;;;;5053526;28;20484;-72
2022/10/14 03:06:08;;;;;;;99.80;68.80;;;12.00;99.90;;;;;;5053534;28;20041;-72
2022/10/14 03:08:35;;;;;;;101.80;70.57;;;12.10;99.90;;;;;;5052318;28;20049;-72
2022/10/14 03:11:05;;;;;;;98.47;68.05;;;12.00;99.90;;;;;;5057530;28;20056;-72
2022/10/14 03:13:33;;;;;;;94.30;68.28;;;12.00;99.90;;;;;;5061087;28;20059;-72
2022/10/14 03:16:00;;;;;;;102.80;71.90;;;12.00;99.90;;;;;;5058811;28;20091;-72
2022/10/14 03:18:28;;;;;;;110.97;72.43;;;12.00;99.90;;;;;;5051912;28;20412;-72
2022/10/14 03:21:03;;;;;;;108.75;71.22;;;12.00;99.90;;;;;;5052884;28;20037;-72
2022/10/14 03:23:37;;;;;;;101.43;69.50;;;12.10;99.90;;;;;;5049046;28;20091;-71
2022/10/14 03:26:04;;;;;;;99.13;66.70;;;12.10;99.90;;;;;;5052459;28;20099;-72
2022/10/14 03:28:37;;;;;;;96.40;65.50;;;12.20;99.90;;;;;;5038166;28;20053;-72
2022/10/14 03:31:13;;;;;;;95.85;64.05;;;12.20;99.90;;;;;;5051233;28;20080;-72
2022/10/14 03:34:01;;;;;;;95.20;62.92;;;12.20;99.90;;;;;;5050393;28;20493;-72
2022/10/14 03:36:31;;;;;;;98.47;65.45;;;12.10;99.90;;;;;;5051883;28;20045;-73
2022/10/14 03:38:59;;;;;;;90.22;62.28;;;12.10;99.90;;;;;;5051809;28;20049;-72
2022/10/14 03:41:41;;;;;;;88.10;60.63;;;12.20;99.90;;;;;;5067139;28;20047;-71
2022/10/14 03:44:12;;;;;;;87.80;61.30;;;12.20;99.90;;;;;;5047859;28;20132;-72
2022/10/14 03:46:45;;;;;;;91.15;61.10;;;12.20;99.90;;;;;;5051428;28;20045;-72
2022/10/14 03:49:13;;;;;;;87.60;60.00;;;12.30;99.90;;;;;;5051787;28;20139;-72
2022/10/14 03:51:42;;;;;;;92.88;59.65;;;12.20;99.90;;;;;;5051853;28;20511;-72
2022/10/14 03:54:18;;;;;;;85.57;57.53;;;12.20;99.90;;;;;;5053118;28;20044;-72
2022/10/14 03:56:45;;;;;;;84.88;57.85;;;12.30;99.90;;;;;;5071730;28;20139;-72
2022/10/14 03:59:15;;;;;;;89.00;58.72;;;12.30;99.90;;;;;;5072283;28;20099;-72
2022/10/14 04:01:48;;;;;;;85.72;58.10;;;12.30;99.90;;;;;;5071901;28;20458;-72
2022/10/14 04:04:24;;;;;;;83.90;56.35;;;12.30;99.90;;;;;;5071613;28;20511;-72
2022/10/14 04:06:54;;;;;;;95.03;58.67;;;12.40;99.90;;;;;;5073290;28;20128;-72
2022/10/14 04:09:22;;;;;;;88.75;57.50;;;12.40;99.90;;;;;;5073000;28;20083;-71
2022/10/14 04:11:50;;;;;;;89.45;56.35;;;12.40;99.90;;;;;;5072061;28;20522;-72
2022/10/14 04:14:36;;;;;;;90.00;57.28;;;12.40;99.90;;;;;;5052782;28;20060;-71
2022/10/14 04:17:03;;;;;;;95.63;57.55;;;12.40;99.90;;;;;;5051298;28;20084;-72
2022/10/14 04:19:32;;;;;;;104.47;60.60;;;12.30;99.90;;;;;;5051373;28;20053;-71
2022/10/14 04:22:02;;;;;;;86.45;56.50;;;12.40;99.90;;;;;;5051367;28;20439;-72
2022/10/14 04:24:30;;;;;;;93.03;59.50;;;12.40;99.90;;;;;;5052029;28;20452;-72
2022/10/14 04:26:59;;;;;;;143.45;58.00;;;12.30;99.90;;;;;;5053502;28;20048;-72
2022/10/14 04:29:43;;;;;;;150.10;62.63;;;12.30;99.90;;;;;;5053668;28;20128;-72
2022/10/14 04:32:17;;;;;;;116.80;64.45;;;12.30;99.90;;;;;;5053842;28;20132;-71
2022/10/14 04:34:44;;;;;;;116.25;67.30;;;12.20;99.90;;;;;;5053909;28;20043;-72
2022/10/14 04:37:17;;;;;;;119.93;68.65;;;12.30;99.90;;;;;;5054021;28;20045;-72
2022/10/14 04:39:51;;;;;;;137.45;72.30;;;12.30;99.90;;;;;;5053824;28;20424;-69
2022/10/14 04:42:19;;;;;;;144.65;78.60;;;12.40;99.90;;;;;;5059841;28;20045;-70
2022/10/14 04:44:51;;;;;;;167.32;75.65;;;12.30;99.90;;;;;;5059846;28;20110;-69
2022/10/14 04:47:24;;;;;;;141.80;76.38;;;12.30;99.90;;;;;;5059869;28;20049;-70
2022/10/14 04:49:57;;;;;;;161.40;74.55;;;12.30;99.90;;;;;;5059599;28;20049;-70
2022/10/14 04:52:26;;;;;;;229.90;71.30;;;12.40;99.90;;;;;;5058568;28;20076;-71
2022/10/14 04:55:06;;;;;;;190.38;71.32;;;12.40;99.90;;;;;;5059993;28;20045;-70
2022/10/14 04:57:42;;;;;;;150.15;71.68;;;12.30;99.90;;;;;;5060105;28;20151;-69
2022/10/14 05:00:11;;;;;;;171.27;75.57;;;12.30;99.90;;;;;;5060295;28;20057;-70
2022/10/14 05:03:08;;;;;;;191.77;73.75;;;12.30;99.90;;;;;;5055501;28;20416;-70
2022/10/14 05:05:36;;;;;;;199.15;75.32;;;12.40;99.90;;;;;;5057244;28;20063;-70
2022/10/14 05:08:07;;;;;;;165.95;72.97;;;12.40;99.90;;;;;;5055113;28;20053;-70
2022/10/14 05:10:40;;;;;;;216.60;66.50;;;12.30;99.90;;;;;;5055108;28;20420;-70
2022/10/14 05:13:12;;;;;;;171.63;69.78;;;12.40;99.90;;;;;;5054528;28;20053;-70
2022/10/14 05:15:52;;;;;;;145.50;71.97;;;12.30;99.90;;;;;;5055080;28;20079;-70
2022/10/14 05:18:21;;;;;;;141.65;71.50;;;12.30;99.90;;;;;;5056056;28;20040;-70
2022/10/14 05:20:59;;;;;;;139.60;74.18;;;12.40;99.90;;;;;;5054984;28;20171;-70
2022/10/14 05:23:37;;;;;;;138.68;71.95;;;12.40;99.90;;;;;;5054095;28;20037;-70
2022/10/14 05:26:05;;;;;;;210.82;77.00;;;12.50;99.90;;;;;;5054485;28;20049;-70
2022/10/14 05:28:33;;;;;;;130.98;67.95;;;12.50;99.90;;;;;;5053381;28;20051;-70
2022/10/14 05:31:01;;;;;;;132.27;70.45;;;12.60;99.90;;;;;;5055395;28;20041;-70
2022/10/14 05:33:30;;;;;;;255.48;77.45;;;12.60;99.90;;;;;;5053512;28;20053;-70
2022/10/14 05:35:57;;;;;;;137.00;71.97;;;12.60;99.90;;;;;;5054040;28;20160;-69
2022/10/14 05:38:25;;;;;;;136.35;72.90;;;12.70;99.90;;;;;;5053931;28;20061;-70
2022/10/14 05:40:54;;;;;;;148.00;77.00;;;12.80;99.90;;;;;;5053970;28;20056;-70
2022/10/14 05:43:23;;;;;;;152.55;79.18;;;12.80;99.90;;;;;;5053185;28;20458;-70
2022/10/14 05:45:51;;;;;;;147.20;76.80;;;12.90;99.90;;;;;;5053732;28;20106;-70
2022/10/14 05:48:19;;;;;;;152.27;74.10;;;12.90;99.90;;;;;;5053764;28;20056;-69
2022/10/14 05:50:46;;;;;;;201.45;82.20;;;12.90;99.90;;;;;;5054915;28;20048;-69
2022/10/14 05:53:17;;;;;;;146.00;70.68;;;12.90;99.90;;;;;;5052832;28;20055;-70
2022/10/14 05:55:48;;;;;;;150.05;69.45;;;12.90;99.90;;;;;;5053772;28;20408;-69
2022/10/14 05:58:17;;;;;;;131.23;69.82;;;13.00;99.90;;;;;;5053952;28;20037;-70
2022/10/14 06:00:46;;;;;;;134.48;68.78;;;13.00;99.90;;;;;;5053150;28;20053;-69
2022/10/14 06:03:18;;;;;;;125.95;68.15;;;13.10;99.90;;;;;;5052228;28;20051;-70
2022/10/14 06:05:45;;;;;;;117.05;66.07;;;13.10;99.90;;;;;;5054376;28;20051;-70
2022/10/14 06:08:13;;;;;;;120.80;69.63;;;13.10;99.90;;;;;;5053066;28;20041;-70
2022/10/14 06:10:40;;;;;;;102.47;62.53;;;13.20;99.90;;;;;;5053316;28;20060;-70
2022/10/14 06:13:07;;;;;;;130.70;63.90;;;13.10;99.90;;;;;;5053726;28;20063;-69
2022/10/14 06:15:39;;;;;;;127.93;63.72;;;13.20;99.90;;;;;;5053069;28;20037;-69
2022/10/14 06:18:06;;;;;;;108.28;60.40;;;13.30;99.90;;;;;;5052724;28;20140;-71
2022/10/14 06:20:34;;;;;;;161.07;65.43;;;13.40;99.90;;;;;;5053407;28;20044;-69
2022/10/14 06:23:02;;;;;;;106.72;59.58;;;13.50;99.90;;;;;;5054069;28;20063;-70
2022/10/14 06:25:30;;;;;;;96.53;58.03;;;13.60;99.90;;;;;;5054567;28;20079;-69
2022/10/14 06:28:03;;;;;;;90.22;55.95;;;13.70;99.90;;;;;;5054359;28;20037;-69
2022/10/14 06:30:30;;;;;;;88.40;55.92;;;13.70;99.90;;;;;;5054405;28;20119;-69
2022/10/14 06:32:59;;;;;;;88.32;54.00;;;13.80;99.90;;;;;;5052052;28;20049;-70
2022/10/14 06:35:26;;;;;;;104.38;56.75;;;13.80;99.90;;;;;;5054112;28;20037;-70
2022/10/14 06:37:53;;;;;;;114.03;58.75;;;13.90;99.90;;;;;;5052831;28;20044;-69
2022/10/14 06:40:21;;;;;;;172.80;64.13;;;13.90;99.90;;;;;;5052628;28;20045;-70
2022/10/14 06:42:48;;;;;;;115.60;57.67;;;13.90;99.90;;;;;;5053017;28;20041;-69
2022/10/14 06:45:17;;;;;;;104.35;55.15;;;14.00;99.90;;;;;;5053480;28;20065;-70
2022/10/14 06:47:45;;;;;;;95.07;54.88;;;14.00;99.90;;;;;;5053707;28;20052;-69
2022/10/14 06:50:14;;;;;;;104.50;54.88;;;14.00;99.90;;;;;;5052514;28;20510;-70
2022/10/14 06:52:41;;;;;;;110.60;57.05;;;14.00;99.90;;;;;;5051813;28;20045;-69
2022/10/14 06:55:09;;;;;;;111.43;58.90;;;14.00;99.90;;;;;;5053190;28;20037;-71
2022/10/14 06:57:36;;;;;;;101.07;57.60;;;14.10;99.90;;;;;;5053104;28;20048;-70
2022/10/14 07:00:04;;;;;;;119.70;63.60;;;14.20;99.90;;;;;;5053350;28;20054;-70
2022/10/14 07:02:35;;;;;;;125.40;65.65;;;14.20;99.90;;;;;;5052996;28;20044;-69
2022/10/14 07:05:02;;;;;;;123.65;66.32;;;14.30;99.90;;;;;;5052577;28;20480;-68
2022/10/14 07:07:31;;;;;;;118.78;69.35;;;14.40;99.90;;;;;;5053434;28;20519;-68
2022/10/14 07:09:58;;;;;;;115.25;66.75;;;14.40;99.90;;;;;;5053627;28;20049;-69
2022/10/14 07:12:26;;;;;;;106.60;63.70;;;14.60;99.90;;;;;;5051740;28;20107;-70
2022/10/14 07:14:53;;;;;;;101.50;61.28;;;14.60;99.90;;;;;;5053226;28;20048;-69
2022/10/14 07:17:20;;;;;;;108.80;62.63;;;14.70;99.90;;;;;;5053357;28;20044;-69
2022/10/14 07:19:48;;;;;;;104.80;58.72;;;14.70;99.90;;;;;;5051951;28;20060;-69
2022/10/14 07:22:16;;;;;;;90.75;54.25;;;14.70;99.90;;;;;;5053213;28;20071;-70
2022/10/14 07:24:45;;;;;;;103.13;58.75;;;14.70;99.90;;;;;;5053342;28;20044;-69
2022/10/14 07:27:14;;;;;;;94.65;56.15;;;14.80;99.90;;;;;;5053537;28;20094;-69
2022/10/14 07:29:42;;;;;;;90.50;55.20;;;14.80;99.90;;;;;;5053559;28;20492;-69
2022/10/14 07:32:09;;;;;;;92.55;58.58;;;14.80;99.90;;;;;;5053182;28;20439;-69
2022/10/14 07:34:36;;;;;;;90.82;57.50;;;14.90;99.90;;;;;;5052864;28;20036;-69
2022/10/14 07:37:04;;;;;;;90.35;57.45;;;14.90;99.90;;;;;;5053201;28;20044;-69
2022/10/14 07:39:32;;;;;;;81.45;53.90;;;15.10;99.90;;;;;;5052710;28;20041;-70
2022/10/14 07:42:01;;;;;;;80.93;54.28;;;15.20;99.90;;;;;;5053068;28;20041;-69
2022/10/14 07:44:28;;;;;;;82.22;52.13;;;15.40;99.90;;;;;;5052539;28;20037;-69
2022/10/14 07:46:57;;;;;;;81.10;54.50;;;15.40;99.90;;;;;;5053063;28;20044;-69
2022/10/14 07:49:24;;;;;;;85.53;55.15;;;15.40;99.90;;;;;;5053154;28;20147;-69
2022/10/14 07:51:52;;;;;;;84.13;53.60;;;15.40;99.90;;;;;;5053339;28;20049;-69
2022/10/14 07:54:22;;;;;;;78.43;49.60;;;15.40;99.90;;;;;;5052435;28;20044;-69
2022/10/14 07:56:49;;;;;;;81.68;51.95;;;15.20;99.90;;;;;;5053125;28;20052;-69
2022/10/14 07:59:20;;;;;;;82.47;54.78;;;15.20;99.90;;;;;;5053347;28;20468;-69
2022/10/14 08:01:48;;;;;;;78.00;54.67;;;15.10;99.90;;;;;;5052898;28;20055;-69
2022/10/14 08:04:16;;;;;;;81.15;56.10;;;14.90;99.90;;;;;;5053023;28;20119;-70
2022/10/14 08:06:43;;;;;;;88.68;57.92;;;14.80;99.90;;;;;;5052671;28;20110;-71
2022/10/14 08:09:12;;;;;;;90.10;59.20;;;14.80;99.90;;;;;;5052981;28;20048;-70
2022/10/14 08:11:40;;;;;;;96.28;63.13;;;14.80;99.90;;;;;;5052680;28;20053;-69
2022/10/14 08:14:07;;;;;;;90.18;59.83;;;14.80;99.90;;;;;;5052555;28;20112;-69
2022/10/14 08:16:37;;;;;;;88.57;60.35;;;14.90;99.90;;;;;;5054864;28;20485;-69
2022/10/14 08:19:06;;;;;;;89.80;59.17;;;15.00;99.90;;;;;;5056641;28;20037;-70
2022/10/14 08:21:33;;;;;;;86.40;58.05;;;15.10;99.90;;;;;;5056650;28;20049;-70
2022/10/14 08:24:01;;;;;;;99.13;60.30;;;15.30;99.90;;;;;;5056313;28;20056;-69
2022/10/14 08:26:30;;;;;;;76.97;53.13;;;15.30;99.90;;;;;;5055980;28;20463;-69
2022/10/14 08:28:58;;;;;;;89.97;59.65;;;15.40;99.90;;;;;;5056520;28;20124;-69
2022/10/14 08:31:26;;;;;;;86.13;58.08;;;15.40;99.90;;;;;;5056227;28;20065;-67
2022/10/14 08:33:55;;;;;;;80.68;54.85;;;15.40;99.90;;;;;;5056109;28;20103;-68
2022/10/14 08:36:23;;;;;;;80.38;56.03;;;15.50;99.90;;;;;;5055757;28;20044;-69
2022/10/14 08:38:52;;;;;;;81.22;54.75;;;15.70;99.90;;;;;;5056464;28;20119;-69
2022/10/14 08:41:43;;;;;;;83.35;55.30;;;15.70;99.90;;;;;;5056183;28;20071;-69
2022/10/14 08:44:18;;;;;;;81.75;54.75;;;15.70;99.90;;;;;;5054508;28;20496;-71
2022/10/14 08:46:50;;;;;;;78.30;54.17;;;15.80;99.90;;;;;;5054917;28;20493;-68
2022/10/14 08:49:25;;;;;;;72.40;51.95;;;16.00;99.90;;;;;;5056620;28;20036;-69
2022/10/14 08:51:56;;;;;;;72.72;52.17;;;16.20;99.90;;;;;;5056010;28;20045;-69
2022/10/14 08:54:32;;;;;;;79.40;54.75;;;16.40;99.90;;;;;;5055715;28;20048;-68
2022/10/14 08:57:00;;;;;;;71.18;53.80;;;16.80;99.90;;;;;;5056046;28;20084;-69
2022/10/14 08:59:28;;;;;;;77.35;52.63;;;16.90;99.90;;;;;;5056159;28;20469;-69
2022/10/14 09:02:00;;;;;;;70.78;50.72;;;16.90;99.90;;;;;;5054421;28;20049;-69
2022/10/14 09:04:38;;;;;;;72.53;52.22;;;16.80;99.90;;;;;;5056089;28;20102;-69
2022/10/14 09:07:05;;;;;;;73.15;50.35;;;16.80;99.90;;;;;;5056107;28;20451;-70
2022/10/14 09:09:41;;;;;;;71.85;51.97;;;16.50;99.90;;;;;;5056304;28;20049;-69
2022/10/14 09:12:12;;;;;;;;;;;16.70;99.90;;;;;;5055704;28;20056;-70
2022/10/14 09:14:44;;;;;;;71.30;51.00;;;16.80;99.90;;;;;;5055661;28;19974;-67
2022/10/14 09:17:17;;;;;;;68.47;49.63;;;17.00;99.90;;;;;;5055755;28;20045;-69
2022/10/14 09:19:51;;;;;;;75.47;53.38;;;17.20;99.90;;;;;;5055851;28;20045;-70
2022/10/14 09:22:19;;;;;;;67.10;49.15;;;16.80;99.90;;;;;;5054289;28;20409;-70
2022/10/14 09:24:47;;;;;;;73.95;55.28;;;16.90;99.90;;;;;;5055288;28;20041;-69
2022/10/14 09:27:16;;;;;;;73.80;52.17;;;17.00;99.90;;;;;;5054835;28;20051;-69
2022/10/14 09:29:47;;;;;;;70.80;51.60;;;17.20;99.90;;;;;;5055351;28;20090;-68
2022/10/14 09:32:20;;;;;;;73.45;52.85;;;17.30;99.90;;;;;;5054990;28;20051;-69
2022/10/14 09:34:51;;;;;;;76.32;55.22;;;17.50;99.90;;;;;;5055177;28;20492;-69
2022/10/14 09:37:26;;;;;;;70.38;53.85;;;17.60;99.90;;;;;;5053787;28;20114;-69
2022/10/14 09:39:56;;;;;;;78.60;57.78;;;17.90;99.90;;;;;;5054983;28;20427;-69
2022/10/14 09:42:27;;;;;;;82.53;57.85;;;17.70;99.90;;;;;;5055072;28;20040;-70
2022/10/14 09:45:09;;;;;;;84.07;58.90;;;17.70;99.90;;;;;;5054929;28;20048;-69
2022/10/14 09:47:45;;;;;;;87.72;62.03;;;17.60;99.90;;;;;;5035298;28;20076;-69
2022/10/14 09:50:26;;;;;;;91.63;62.00;;;17.80;99.90;;;;;;5035273;28;20469;-69
2022/10/14 09:52:57;;;;;;;81.72;59.63;;;18.00;99.90;;;;;;5041005;28;20110;-70
2022/10/14 09:55:24;;;;;;;83.97;60.65;;;18.00;99.90;;;;;;5054999;28;20455;-69
2022/10/14 09:58:05;;;;;;;94.75;63.60;;;18.00;99.90;;;;;;5054767;28;20052;-69
2022/10/14 10:00:35;;;;;;;81.55;59.25;;;18.40;99.90;;;;;;5054736;28;20049;-69
2022/10/14 10:03:03;;;;;;;81.95;60.65;;;18.00;99.90;;;;;;5054466;28;20051;-68
2022/10/14 10:05:33;;;;;;;117.15;66.15;;;17.60;99.90;;;;;;5054999;28;20041;-69
2022/10/14 10:08:15;;;;;;;79.90;59.42;;;17.80;99.90;;;;;;5053458;28;20056;-70
2022/10/14 10:10:56;;;;;;;79.60;58.92;;;18.10;99.90;;;;;;5054967;28;20037;-69
2022/10/14 10:13:33;;;;;;;78.60;58.47;;;18.10;99.90;;;;;;5054869;28;20055;-70
2022/10/14 10:16:02;;;;;;;82.18;59.20;;;18.20;99.90;;;;;;5055014;28;20484;-70
2022/10/14 10:18:30;;;;;;;89.05;60.45;;;18.00;99.90;;;;;;5054467;28;20037;-70
2022/10/14 10:21:05;;;;;;;81.53;58.85;;;18.00;99.90;;;;;;5054438;28;20044;-69
2022/10/14 10:23:34;;;;;;;88.30;62.33;;;18.00;99.90;;;;;;5054238;28;20049;-69
2022/10/14 10:26:24;;;;;;;81.18;57.20;;;18.20;99.90;;;;;;5054623;28;20083;-69
2022/10/14 10:28:52;;;;;;;85.75;59.92;;;18.40;99.90;;;;;;5054865;28;20457;-69
2022/10/14 10:31:42;;;;;;;82.95;59.17;;;18.30;99.90;;;;;;5054593;28;20049;-70
2022/10/14 10:34:45;;;;;;;80.70;58.30;;;18.30;99.90;;;;;;5053045;28;20081;-70
2022/10/14 10:37:25;;;;;;;82.15;58.42;;;18.40;99.90;;;;;;5055825;28;20045;-69
2022/10/14 10:40:23;;;;;;;87.40;60.75;;;18.40;99.90;;;;;;5055326;28;20053;-69
2022/10/14 10:43:21;;;;;;;80.65;60.90;;;18.50;99.90;;;;;;5054697;28;20140;-70
2022/10/14 10:46:02;;;;;;;88.13;61.15;;;18.60;99.90;;;;;;5050347;28;20057;-69
2022/10/14 10:48:39;;;;;;;84.38;58.97;;;18.50;99.90;;;;;;5054267;28;20052;-69
2022/10/14 10:51:12;;;;;;;85.88;58.67;;;18.40;99.90;;;;;;5054721;28;20419;-69
2022/10/14 10:54:05;;;;;;;83.57;58.45;;;18.20;99.90;;;;;;5053212;28;20048;-69
2022/10/14 10:56:41;;;;;;;87.57;59.20;;;18.10;99.90;;;;;;5052284;28;20091;-69
2022/10/14 10:59:40;;;;;;;81.70;58.72;;;18.00;99.90;;;;;;5051823;28;20049;-70
2022/10/14 11:02:44;;;;;;;91.07;53.88;;;18.10;99.90;;;;;;5053205;28;20049;-70
2022/10/14 11:05:17;;;;;;;66.72;49.22;;;18.30;99.90;;;;;;5053471;28;20033;-69
2022/10/14 11:13:46;;;;;;;60.05;47.83;;;18.50;99.90;;;;;;5052668;28;20054;-70
2022/10/14 11:16:20;;;;;;;66.47;48.88;;;18.70;99.90;;;;;;5052896;28;20045;-70
2022/10/14 11:18:50;;;;;;;58.05;44.47;;;18.90;99.90;;;;;;5053182;28;20037;-69
2022/10/14 11:21:29;;;;;;;61.92;46.13;;;18.80;99.90;;;;;;5051671;28;20482;-69
2022/10/14 11:24:05;;;;;;;67.07;46.72;;;18.80;99.90;;;;;;5053118;28;20045;-69
2022/10/14 11:26:58;;;;;;;65.03;49.42;;;18.90;99.90;;;;;;5052698;28;20064;-69
2022/10/14 11:29:56;;;;;;;56.25;44.30;;;18.90;99.90;;;;;;5052893;28;20095;-69
2022/10/14 11:32:32;;;;;;;58.03;43.40;;;18.80;99.90;;;;;;5052650;28;20045;-69
2022/10/14 11:35:16;;;;;;;53.15;41.38;;;18.80;99.90;;;;;;5052659;28;20387;-70
2022/10/14 11:37:55;;;;;;;47.70;38.67;;;18.80;99.90;;;;;;5048441;28;20484;-69
2022/10/14 11:40:27;;;;;;;49.22;38.05;;;18.70;99.90;;;;;;5053152;28;20095;-70
2022/10/14 11:43:13;;;;;;;69.00;57.42;;;18.70;99.90;;;;;;5053073;28;20041;-69
2022/10/14 11:45:48;;;;;;;47.88;39.08;;;18.80;99.90;;;;;;5053089;28;20045;-69
2022/10/14 11:48:32;;;;;;;52.35;42.80;;;18.90;99.90;;;;;;5053740;28;20037;-69
2022/10/14 11:51:07;;;;;;;48.95;35.20;;;19.10;99.90;;;;;;5052924;28;20496;-69
2022/10/14 11:53:54;;;;;;;43.90;36.65;;;19.10;99.90;;;;;;5052607;28;20123;-70
2022/10/14 11:56:32;;;;;;;167.85;88.60;;;19.00;99.90;;;;;;5053269;28;20048;-69
2022/10/14 11:59:08;;;;;;;44.08;35.13;;;19.10;99.90;;;;;;5052999;28;20048;-69
2022/10/14 12:01:43;;;;;;;42.15;34.53;;;19.20;99.90;;;;;;5052863;28;20049;-69
2022/10/14 12:04:19;;;;;;;45.67;36.22;;;19.20;99.90;;;;;;5052182;28;20080;-69
2022/10/14 12:06:51;;;;;;;40.03;32.72;;;19.30;99.90;;;;;;5052665;28;20119;-68
2022/10/14 12:09:25;;;;;;;47.80;35.90;;;19.30;99.90;;;;;;5052905;28;20073;-68
2022/10/14 12:11:57;;;;;;;41.30;34.33;;;19.30;99.90;;;;;;5052327;28;20057;-68
2022/10/14 12:14:33;;;;;;;42.20;33.78;;;19.40;99.90;;;;;;5052464;28;20091;-68
2022/10/14 12:17:04;;;;;;;46.65;37.30;;;19.50;99.90;;;;;;5052760;28;20041;-70
2022/10/14 12:19:32;;;;;;;49.05;36.03;;;19.60;99.90;;;;;;5047080;28;20142;-70
2022/10/14 12:22:08;;;;;;;40.78;35.15;;;19.50;99.90;;;;;;5052363;28;20456;-68
2022/10/14 12:24:37;;;;;;;;;;;19.70;99.90;;;;;;5050119;28;20044;-69
2022/10/14 12:27:08;;;;;;;41.50;33.28;;;19.80;99.90;;;;;;5053036;28;19928;-69
2022/10/14 12:29:40;;;;;;;41.28;32.35;;;20.00;99.90;;;;;;5044873;28;20049;-69
2022/10/14 12:32:18;;;;;;;38.47;31.55;;;20.20;99.90;;;;;;5049439;28;20048;-70
2022/10/14 12:34:46;;;;;;;36.92;29.95;;;20.40;99.90;;;;;;5051135;28;20055;-69
2022/10/14 12:37:44;;;;;;;39.10;30.67;;;20.50;99.90;;;;;;5052724;28;20378;-69
2022/10/14 12:40:29;;;;;;;35.15;29.58;;;20.50;99.90;;;;;;5053016;28;20037;-70
2022/10/14 12:43:02;;;;;;;36.35;29.75;;;20.60;99.90;;;;;;5056709;28;20110;-69
2022/10/14 12:45:33;;;;;;;41.10;32.30;;;20.60;99.90;;;;;;5055876;28;20497;-70
2022/10/14 12:48:05;;;;;;;40.75;32.00;;;20.40;99.90;;;;;;5072495;28;20048;-68
2022/10/14 12:50:37;;;;;;;36.50;30.48;;;20.30;99.90;;;;;;5072593;28;20044;-69
2022/10/14 12:53:16;;;;;;;57.55;41.58;;;20.20;99.90;;;;;;5062302;28;20067;-69
2022/10/14 12:55:49;;;;;;;66.35;46.33;;;20.30;99.90;;;;;;5050123;28;20044;-69